createdAt,value
2022-10-11T00:00:02.214Z,99776.03
2022-10-11T00:03:04.734Z,99779.53
2022-10-11T00:06:07.898Z,99783.59
2022-10-11T00:09:11.681Z,99775.94
2022-10-11T00:12:13.808Z,99775.00
2022-10-11T00:15:18.098Z,99766.81
2022-10-11T00:18:20.618Z,99774.38
2022-10-11T00:21:22.855Z,99767.28
2022-10-11T00:24:25.048Z,99768.09
2022-10-11T00:27:27.397Z,99766.97
2022-10-11T00:30:29.619Z,99764.81
2022-10-11T00:33:31.773Z,99757.78
2022-10-11T00:36:33.911Z,99762.50
2022-10-11T00:39:36.208Z,99760.09
2022-10-11T00:42:38.860Z,99758.22
2022-10-11T00:45:40.962Z,99756.19
2022-10-11T00:48:46.683Z,99758.00
2022-10-11T00:51:57.616Z,99761.81
2022-10-11T00:55:06.472Z,99754.69
2022-10-11T00:58:09.322Z,99759.22
2022-10-11T01:01:11.754Z,99758.44
2022-10-11T01:04:14.288Z,99750.50
2022-10-11T01:07:17.716Z,99741.53
2022-10-11T01:10:19.948Z,99742.25
2022-10-11T01:13:31.325Z,99745.75
2022-10-11T01:16:36.145Z,99744.22
2022-10-11T01:20:03.461Z,99737.75
2022-10-11T01:23:26.774Z,99743.78
2022-10-11T01:26:31.887Z,99743.94
2022-10-11T01:30:02.240Z,99739.72
2022-10-11T01:33:17.448Z,99734.47
2022-10-11T01:36:31.959Z,99737.59
2022-10-11T01:39:56.051Z,99742.22
2022-10-11T01:42:59.284Z,99737.38
2022-10-11T01:46:03.137Z,99733.53
2022-10-11T01:49:05.759Z,99740.13
2022-10-11T01:52:08.082Z,99738.56
2022-10-11T01:55:21.545Z,99739.38
2022-10-11T01:58:58.838Z,99736.59
2022-10-11T02:02:22.338Z,99729.16
2022-10-11T02:05:27.159Z,99726.59
2022-10-11T02:08:44.331Z,99731.00
2022-10-11T02:11:46.528Z,99727.03
2022-10-11T02:14:49.512Z,99734.00
2022-10-11T02:17:55.518Z,99734.41
2022-10-11T02:21:00.771Z,99739.09
2022-10-11T02:24:11.059Z,99734.84
2022-10-11T02:27:13.855Z,99725.78
2022-10-11T02:30:16.337Z,99726.03
2022-10-11T02:33:22.082Z,99722.62
2022-10-11T02:36:36.660Z,99727.37
2022-10-11T02:39:46.550Z,99744.72
2022-10-11T02:42:59.293Z,99743.44
2022-10-11T02:46:02.843Z,99740.56
2022-10-11T02:49:05.469Z,99733.84
2022-10-11T02:52:07.989Z,99732.47
2022-10-11T02:55:10.933Z,99736.94
2022-10-11T02:58:13.057Z,99727.25
2022-10-11T03:01:15.439Z,99739.12
2022-10-11T03:04:17.656Z,99739.19
2022-10-11T03:07:19.853Z,99745.69
2022-10-11T03:10:22.009Z,99744.22
2022-10-11T03:13:24.389Z,99742.34
2022-10-11T03:16:26.694Z,99747.75
2022-10-11T03:19:29.018Z,99744.44
2022-10-11T03:22:31.196Z,99740.22
2022-10-11T03:25:33.369Z,99742.47
2022-10-11T03:28:35.589Z,99743.84
2022-10-11T03:31:37.759Z,99739.47
2022-10-11T03:34:39.912Z,99745.03
2022-10-11T03:37:42.094Z,99748.75
2022-10-11T03:40:44.363Z,99745.81
2022-10-11T03:43:46.508Z,99746.56
2022-10-11T03:46:48.672Z,99746.25
2022-10-11T03:49:50.805Z,99745.62
2022-10-11T03:52:52.957Z,99741.44
2022-10-11T03:55:55.840Z,99749.66
2022-10-11T03:58:58.002Z,99739.03
2022-10-11T04:02:00.245Z,99750.03
2022-10-11T04:05:03.255Z,99752.06
2022-10-11T04:08:09.812Z,99753.50
2022-10-11T04:11:14.261Z,99754.53
2022-10-11T04:14:17.062Z,99769.38
2022-10-11T04:17:19.210Z,99765.91
2022-10-11T04:20:21.410Z,99762.38
2022-10-11T04:23:23.584Z,99766.97
2022-10-11T04:26:25.967Z,99768.75
2022-10-11T04:29:32.328Z,99760.34
2022-10-11T04:32:35.035Z,99762.38
2022-10-11T04:35:37.282Z,99762.63
2022-10-11T04:38:39.430Z,99771.59
2022-10-11T04:41:41.607Z,99778.22
2022-10-11T04:44:43.752Z,99773.84
2022-10-11T04:47:46.095Z,99771.16
2022-10-11T04:50:48.301Z,99763.63
2022-10-11T04:53:50.491Z,99762.47
2022-10-11T04:56:52.659Z,99766.19
2022-10-11T04:59:54.784Z,99767.00
2022-10-11T05:02:57.392Z,99768.47
2022-10-11T05:06:04.552Z,99768.12
2022-10-11T05:09:07.765Z,99758.63
2022-10-11T05:12:10.215Z,99755.59
2022-10-11T05:15:12.379Z,99759.28
2022-10-11T05:18:14.722Z,99761.28
2022-10-11T05:21:18.070Z,99755.03
2022-10-11T05:24:20.218Z,99756.75
2022-10-11T05:27:22.376Z,99761.53
2022-10-11T05:30:24.947Z,99766.25
2022-10-11T05:33:27.352Z,99775.06
2022-10-11T05:36:29.680Z,99780.37
2022-10-11T05:39:32.353Z,99781.50
2022-10-11T05:42:34.556Z,99778.97
2022-10-11T05:45:40.515Z,99777.22
2022-10-11T05:48:42.709Z,99782.06
2022-10-11T05:51:44.912Z,99786.47
2022-10-11T05:54:48.344Z,99790.16
2022-10-11T05:57:54.922Z,99798.41
2022-10-11T06:00:57.301Z,99803.28
2022-10-11T06:03:59.596Z,99807.38
2022-10-11T06:07:01.698Z,99814.22
2022-10-11T06:10:04.567Z,99812.59
2022-10-11T06:13:07.381Z,99811.56
2022-10-11T06:16:09.834Z,99815.00
2022-10-11T06:19:11.992Z,99819.59
2022-10-11T06:22:14.178Z,99826.56
2022-10-11T06:25:16.454Z,99834.19
2022-10-11T06:28:18.663Z,99836.03
2022-10-11T06:31:20.897Z,99833.59
2022-10-11T06:34:23.271Z,99826.00
2022-10-11T06:37:25.528Z,99836.62
2022-10-11T06:40:27.787Z,99837.28
2022-10-11T06:43:30.014Z,99833.50
2022-10-11T06:46:35.150Z,99829.84
2022-10-11T06:49:37.521Z,99832.56
2022-10-11T06:52:39.865Z,99836.06
2022-10-11T06:55:42.121Z,99827.03
2022-10-11T06:58:44.367Z,99831.75
2022-10-11T07:01:46.537Z,99840.16
2022-10-11T07:04:48.737Z,99837.12
2022-10-11T07:07:50.954Z,99843.47
2022-10-11T07:10:53.129Z,99848.00
2022-10-11T07:13:58.072Z,99847.16
2022-10-11T07:17:00.248Z,99851.88
2022-10-11T07:20:02.408Z,99849.03
2022-10-11T07:23:04.582Z,99851.69
2022-10-11T07:26:08.071Z,99852.31
2022-10-11T07:29:11.546Z,99856.84
2022-10-11T07:32:13.735Z,99851.69
2022-10-11T07:35:15.921Z,99843.44
2022-10-11T07:38:18.029Z,99849.69
2022-10-11T07:41:20.728Z,99852.31
2022-10-11T07:44:22.928Z,99855.59
2022-10-11T07:47:25.125Z,99860.03
2022-10-11T07:50:27.337Z,99862.91
2022-10-11T07:53:29.739Z,99867.91
2022-10-11T07:56:31.973Z,99864.06
2022-10-11T07:59:34.131Z,99862.78
2022-10-11T08:02:36.335Z,99868.12
2022-10-11T08:05:39.125Z,99863.81
2022-10-11T08:08:41.289Z,99874.41
2022-10-11T08:11:43.450Z,99865.75
2022-10-11T08:14:45.634Z,99867.78
2022-10-11T08:17:47.847Z,99864.37
2022-10-11T08:20:49.994Z,99862.84
2022-10-11T08:23:52.360Z,99866.94
2022-10-11T08:26:55.678Z,99872.13
2022-10-11T08:29:57.872Z,99865.69
2022-10-11T08:33:02.179Z,99865.91
2022-10-11T08:36:08.921Z,99867.03
2022-10-11T08:39:11.807Z,99871.87
2022-10-11T08:42:13.959Z,99870.72
2022-10-11T08:45:30.435Z,99863.34
2022-10-11T08:48:37.472Z,99873.34
2022-10-11T08:51:48.597Z,99873.00
2022-10-11T08:54:55.602Z,99873.09
2022-10-11T08:57:58.993Z,99880.50
2022-10-11T09:01:01.770Z,99875.12
2022-10-11T09:04:06.100Z,99862.47
2022-10-11T09:07:30.058Z,99870.66
2022-10-11T09:10:53.995Z,99868.75
2022-10-11T09:13:58.856Z,99858.63
2022-10-11T09:17:23.335Z,99863.75
2022-10-11T09:20:37.271Z,99858.88
2022-10-11T09:23:42.333Z,99863.53
2022-10-11T09:26:57.453Z,99859.13
2022-10-11T09:30:06.935Z,99858.84
2022-10-11T09:33:11.972Z,99862.84
2022-10-11T09:36:39.791Z,99870.16
2022-10-11T09:39:54.491Z,99868.59
2022-10-11T09:42:56.641Z,99876.25
2022-10-11T09:45:58.874Z,99867.38
2022-10-11T09:49:03.694Z,99866.56
2022-10-11T09:52:11.150Z,99877.53
2022-10-11T09:55:50.385Z,99878.69
2022-10-11T09:59:28.365Z,99868.56
2022-10-11T10:02:39.810Z,99878.44
2022-10-11T10:05:41.955Z,99875.62
2022-10-11T10:08:47.128Z,99883.66
2022-10-11T10:11:49.369Z,99878.22
2022-10-11T10:14:56.301Z,99878.00
2022-10-11T10:17:59.095Z,99881.06
2022-10-11T10:21:02.109Z,99872.75
2022-10-11T10:24:19.818Z,99868.25
2022-10-11T10:27:24.492Z,99871.28
2022-10-11T10:30:30.728Z,99868.19
2022-10-11T10:33:35.419Z,99861.13
2022-10-11T10:36:40.132Z,99858.91
2022-10-11T10:39:46.674Z,99856.63
2022-10-11T10:42:50.098Z,99855.75
2022-10-11T10:46:05.066Z,99858.44
2022-10-11T10:53:00.527Z,99852.59
2022-10-11T10:56:06.686Z,99853.06
2022-10-11T10:59:35.405Z,99847.34
2022-10-11T11:02:46.754Z,99850.34
2022-10-11T11:06:02.341Z,99847.59
2022-10-11T11:09:29.533Z,99849.88
2022-10-11T11:12:41.107Z,99849.97
2022-10-11T11:15:51.281Z,99846.41
2022-10-11T11:19:08.687Z,99843.09
2022-10-11T11:22:44.630Z,99846.47
2022-10-11T11:25:46.724Z,99842.97
2022-10-11T11:28:57.881Z,99843.34
2022-10-11T11:31:59.851Z,99846.34
2022-10-11T11:35:26.667Z,99846.41
2022-10-11T11:38:38.041Z,99843.88
2022-10-11T11:41:46.521Z,99843.16
2022-10-11T11:44:51.235Z,99844.19
2022-10-11T11:48:06.874Z,99848.22
2022-10-11T11:51:21.984Z,99840.94
2022-10-11T11:54:46.864Z,99835.63
2022-10-11T11:58:07.297Z,99837.91
2022-10-11T12:01:42.418Z,99830.78
2022-10-11T12:04:45.891Z,99836.22
2022-10-11T12:08:06.074Z,99836.44
2022-10-11T12:11:22.664Z,99823.84
2022-10-11T12:14:33.663Z,99819.53
2022-10-11T12:18:05.253Z,99826.25
2022-10-11T12:21:22.667Z,99823.81
2022-10-11T12:24:24.877Z,99812.94
2022-10-11T12:27:58.660Z,99813.47
2022-10-11T12:31:16.295Z,99816.53
2022-10-11T12:37:51.591Z,99803.69
2022-10-11T12:41:17.066Z,99815.25
2022-10-11T12:44:19.179Z,99819.88
2022-10-11T12:47:35.500Z,99819.97
2022-10-11T12:50:37.614Z,99811.88
2022-10-11T12:54:26.649Z,99819.28
2022-10-11T12:57:48.371Z,99821.84
2022-10-11T13:00:56.384Z,99819.41
2022-10-11T13:04:07.438Z,99811.81
2022-10-11T13:07:15.999Z,99809.38
2022-10-11T13:10:43.567Z,99808.13
2022-10-11T13:13:50.933Z,99806.22
2022-10-11T13:17:00.588Z,99811.37
2022-10-11T13:20:15.692Z,99816.50
2022-10-11T13:23:27.091Z,99819.53
2022-10-11T13:26:30.866Z,99818.25
2022-10-11T13:29:39.475Z,99816.16
2022-10-11T13:32:42.531Z,99813.84
2022-10-11T13:35:44.711Z,99817.03
2022-10-11T13:38:55.685Z,99817.19
2022-10-11T13:41:58.517Z,99815.44
2022-10-11T13:45:00.900Z,99805.28
2022-10-11T13:48:03.263Z,99804.63
2022-10-11T13:51:07.244Z,99807.78
2022-10-11T13:54:13.572Z,99809.66
2022-10-11T13:57:16.144Z,99811.84
2022-10-11T14:00:25.034Z,99811.63
2022-10-11T14:03:37.838Z,99811.78
2022-10-11T14:06:56.550Z,99805.59
2022-10-11T14:09:58.822Z,99813.13
2022-10-11T14:13:07.218Z,99819.97
2022-10-11T14:16:11.969Z,99821.28
2022-10-11T14:19:17.568Z,99815.41
2022-10-11T14:22:19.780Z,99817.94
2022-10-11T14:25:22.070Z,99815.16
2022-10-11T14:28:24.290Z,99813.44
2022-10-11T14:31:26.773Z,99819.97
2022-10-11T14:34:29.378Z,99812.78
2022-10-11T14:37:31.926Z,99815.31
2022-10-11T14:40:34.350Z,99825.03
2022-10-11T14:43:36.493Z,99817.56
2022-10-11T14:46:39.291Z,99813.06
2022-10-11T14:49:41.578Z,99819.66
2022-10-11T14:52:43.734Z,99818.84
2022-10-11T14:55:45.986Z,99817.25
2022-10-11T14:58:48.166Z,99819.44
2022-10-11T15:01:54.220Z,99825.66
2022-10-11T15:04:56.494Z,99820.72
2022-10-11T15:07:58.930Z,99817.66
2022-10-11T15:11:01.194Z,99810.87
2022-10-11T15:14:03.869Z,99818.72
2022-10-11T15:17:06.043Z,99817.31
2022-10-11T15:20:17.571Z,99819.31
2022-10-11T15:23:19.766Z,99819.69
2022-10-11T15:26:27.759Z,99826.94
2022-10-11T15:29:30.028Z,99829.91
2022-10-11T15:32:32.179Z,99827.56
2022-10-11T15:35:34.343Z,99832.59
2022-10-11T15:38:36.535Z,99827.94
2022-10-11T15:41:38.734Z,99828.25
2022-10-11T15:44:40.849Z,99832.34
2022-10-11T15:47:43.231Z,99841.00
2022-10-11T15:50:45.966Z,99836.13
2022-10-11T15:53:48.149Z,99840.16
2022-10-11T15:56:50.401Z,99837.94
2022-10-11T15:59:52.578Z,99837.09
2022-10-11T16:02:55.606Z,99850.31
2022-10-11T16:06:03.855Z,99847.81
2022-10-11T16:09:07.307Z,99844.72
2022-10-11T16:12:09.497Z,99849.66
2022-10-11T16:15:12.164Z,99849.63
2022-10-11T16:18:16.607Z,99849.91
2022-10-11T16:21:20.463Z,99860.34
2022-10-11T16:24:22.621Z,99865.47
2022-10-11T16:27:24.908Z,99868.66
2022-10-11T16:30:27.079Z,99869.72
2022-10-11T16:33:31.758Z,99870.66
2022-10-11T16:36:40.121Z,99878.50
2022-10-11T16:39:42.564Z,99870.34
2022-10-11T16:42:45.274Z,99880.31
2022-10-11T16:45:47.463Z,99885.69
2022-10-11T16:48:49.918Z,99886.16
2022-10-11T16:51:54.223Z,99891.94
2022-10-11T16:54:56.434Z,99895.66
2022-10-11T16:57:58.586Z,99890.31
2022-10-11T17:01:00.926Z,99893.22
2022-10-11T17:04:03.685Z,99899.59
2022-10-11T17:07:12.212Z,99897.50
2022-10-11T17:10:14.539Z,99897.50
2022-10-11T17:13:16.726Z,99904.75
2022-10-11T17:16:19.746Z,99908.22
2022-10-11T17:19:21.915Z,99900.81
2022-10-11T17:22:24.394Z,99902.06
2022-10-11T17:25:26.686Z,99906.59
2022-10-11T17:28:31.889Z,99909.25
2022-10-11T17:31:36.524Z,99906.81
2022-10-11T17:34:38.714Z,99903.50
2022-10-11T17:37:40.944Z,99910.28
2022-10-11T17:40:43.109Z,99915.19
2022-10-11T17:43:45.386Z,99914.75
2022-10-11T17:46:47.725Z,99918.25
2022-10-11T17:49:50.148Z,99921.31
2022-10-11T17:52:53.861Z,99923.78
2022-10-11T17:55:58.863Z,99920.53
2022-10-11T17:59:01.100Z,99914.75
2022-10-11T18:02:03.883Z,99921.97
2022-10-11T18:05:07.627Z,99918.47
2022-10-11T18:08:10.605Z,99922.78
2022-10-11T18:11:15.865Z,99921.97
2022-10-11T18:14:18.223Z,99923.41
2022-10-11T18:17:23.189Z,99925.66
2022-10-11T18:20:26.259Z,99932.25
2022-10-11T18:23:28.510Z,99934.53
2022-10-11T18:26:31.226Z,99938.84
2022-10-11T18:29:33.510Z,99934.75
2022-10-11T18:32:35.739Z,99932.06
2022-10-11T18:35:38.221Z,99935.19
2022-10-11T18:38:46.112Z,99927.41
2022-10-11T18:41:48.750Z,99930.50
2022-10-11T18:44:50.936Z,99930.13
2022-10-11T18:47:53.161Z,99940.00
2022-10-11T18:51:03.098Z,99931.97
2022-10-11T18:54:07.427Z,99933.63
2022-10-11T18:57:09.643Z,99929.31
2022-10-11T19:03:24.832Z,99933.19
2022-10-11T19:06:29.892Z,99924.31
2022-10-11T19:09:32.348Z,99924.34
2022-10-11T19:12:34.718Z,99927.84
2022-10-11T19:15:36.952Z,99927.44
2022-10-11T19:18:44.103Z,99929.25
2022-10-11T19:21:48.706Z,99933.72
2022-10-11T19:24:50.898Z,99936.16
2022-10-11T19:27:53.067Z,99930.44
2022-10-11T19:31:04.821Z,99930.03
2022-10-11T19:34:07.482Z,99943.56
2022-10-11T19:37:13.246Z,99936.09
2022-10-11T19:40:15.522Z,99932.59
2022-10-11T19:43:17.854Z,99934.84
2022-10-11T19:46:44.323Z,99942.19
2022-10-11T19:49:43.459Z,99940.59
2022-10-11T19:52:45.660Z,99934.44
2022-10-11T19:55:47.916Z,99943.25
2022-10-11T19:58:50.390Z,99939.22
2022-10-11T20:01:53.419Z,99936.97
2022-10-11T20:04:55.809Z,99933.72
2022-10-11T20:07:58.005Z,99941.50
2022-10-11T20:11:03.608Z,99943.75
2022-10-11T20:14:05.913Z,99947.84
2022-10-11T20:17:08.130Z,99948.13
2022-10-11T20:20:10.493Z,99949.97
2022-10-11T20:23:16.151Z,99946.28
2022-10-11T20:26:22.720Z,99953.47
2022-10-11T20:29:25.438Z,99958.56
2022-10-11T20:32:28.461Z,99949.34
2022-10-11T20:35:30.608Z,99950.59
2022-10-11T20:38:34.405Z,99955.66
2022-10-11T20:41:39.999Z,99949.06
2022-10-11T20:44:43.720Z,99963.84
2022-10-11T20:47:45.884Z,99965.69
2022-10-11T20:50:48.101Z,99961.91
2022-10-11T20:53:50.634Z,99958.28
2022-10-11T20:56:52.812Z,99964.03
2022-10-11T20:59:54.983Z,99967.50
2022-10-11T21:02:57.108Z,99966.44
2022-10-11T21:06:00.074Z,99967.47
2022-10-11T21:09:02.668Z,99980.25
2022-10-11T21:12:05.230Z,99970.47
2022-10-11T21:15:07.915Z,99966.53
2022-10-11T21:18:11.504Z,99967.12
2022-10-11T21:21:14.784Z,99966.53
2022-10-11T21:24:16.947Z,99966.88
2022-10-11T21:27:19.099Z,99965.63
2022-10-11T21:30:21.236Z,99959.34
2022-10-11T21:33:23.433Z,99967.28
2022-10-11T21:36:25.919Z,99963.19
2022-10-11T21:39:28.072Z,99968.91
2022-10-11T21:42:30.226Z,99966.38
2022-10-11T21:45:36.970Z,99960.03
2022-10-11T21:48:39.307Z,99958.88
2022-10-11T21:51:41.543Z,99963.41
2022-10-11T21:54:43.711Z,99964.59
2022-10-11T21:57:45.898Z,99956.53
2022-10-11T22:00:48.115Z,99960.28
2022-10-11T22:03:50.459Z,99958.25
2022-10-11T22:06:52.670Z,99954.56
2022-10-11T22:09:54.890Z,99964.34
2022-10-11T22:12:57.127Z,99959.19
2022-10-11T22:16:07.501Z,99956.50
2022-10-11T22:19:09.648Z,99956.25
2022-10-11T22:22:11.965Z,99951.12
2022-10-11T22:25:14.166Z,99956.25
2022-10-11T22:28:16.419Z,99957.09
2022-10-11T22:31:19.320Z,99961.25
2022-10-11T22:34:21.565Z,99956.63
2022-10-11T22:37:23.738Z,99958.06
2022-10-11T22:40:25.959Z,99958.44
2022-10-11T22:43:28.221Z,99953.38
2022-10-11T22:46:30.403Z,99966.50
2022-10-11T22:49:32.541Z,99958.84
2022-10-11T22:52:34.744Z,99967.00
2022-10-11T22:55:36.901Z,99960.91
2022-10-11T22:58:39.040Z,99967.38
2022-10-11T23:01:41.308Z,99959.56
2022-10-11T23:04:43.475Z,99966.53
2022-10-11T23:07:49.051Z,99967.53
2022-10-11T23:10:51.331Z,99965.22
2022-10-11T23:13:53.520Z,99964.91
2022-10-11T23:16:55.670Z,99967.44
2022-10-11T23:19:57.861Z,99971.47
2022-10-11T23:23:00.037Z,99968.09
2022-10-11T23:26:03.897Z,99969.94
2022-10-11T23:29:06.292Z,99967.41
2022-10-11T23:32:09.113Z,99973.41
2022-10-11T23:35:11.322Z,99980.63
2022-10-11T23:38:13.496Z,99976.41
2022-10-11T23:41:15.660Z,99981.81
2022-10-11T23:44:17.831Z,99971.06
2022-10-11T23:47:20.259Z,99985.44
2022-10-11T23:50:22.452Z,99985.87
2022-10-11T23:53:24.641Z,99992.28
2022-10-11T23:56:26.858Z,99985.25
2022-10-11T23:59:29.038Z,99988.72
